Terminal Aerodrome Forecast
Issued by NWS Albany, NY

Home | Current Version | Previous Version | Text Only | Print | Product List | Glossary On
Versions: 1 2 3 4 5 6 7 8 9 10 11 12 13 14 15
000
FTUS41 KALY 201100
TAFALB
TAF
KALB 201133Z 2012/2112 VRB03KT P6SM FEW250
     FM201700 17009KT P6SM SCT250
     FM202300 17007KT P6SM BKN200=

USA.gov is the U.S. government's official web portal to all federal, state and local government web resources and services.